createdAt,value
2022-08-17T00:00:01.638Z,21.90
2022-08-17T00:02:29.701Z,21.91
2022-08-17T00:04:58.572Z,21.90
2022-08-17T00:07:25.840Z,21.88
2022-08-17T00:09:52.995Z,21.87
2022-08-17T00:12:41.280Z,21.84
2022-08-17T00:15:10.543Z,21.85
2022-08-17T00:17:38.833Z,21.85
2022-08-17T00:20:06.843Z,21.83
2022-08-17T00:22:36.406Z,21.83
2022-08-17T00:25:07.534Z,21.83
2022-08-17T00:27:38.003Z,21.83
2022-08-17T00:30:07.588Z,21.83
2022-08-17T00:33:12.227Z,21.82
2022-08-17T00:35:40.663Z,21.81
2022-08-17T00:38:10.312Z,21.80
2022-08-17T00:40:44.617Z,21.81
2022-08-17T00:43:27.208Z,21.83
2022-08-17T00:45:55.197Z,21.86
2022-08-17T00:48:30.038Z,21.86
2022-08-17T00:51:03.776Z,21.86
2022-08-17T00:53:33.847Z,21.86
2022-08-17T00:56:03.590Z,21.86
2022-08-17T00:58:36.228Z,21.87
2022-08-17T01:01:05.435Z,21.86
2022-08-17T01:03:33.694Z,21.88
2022-08-17T01:06:04.714Z,21.87
2022-08-17T01:08:33.455Z,21.87
2022-08-17T01:11:05.813Z,21.88
2022-08-17T01:13:41.268Z,21.89
2022-08-17T01:16:26.282Z,21.89
2022-08-17T01:19:02.722Z,21.89
2022-08-17T01:22:00.803Z,21.88
2022-08-17T01:24:29.388Z,21.86
2022-08-17T01:26:57.719Z,21.85
2022-08-17T01:29:26.145Z,21.84
2022-08-17T01:31:56.949Z,21.82
2022-08-17T01:34:42.873Z,21.84
2022-08-17T01:37:13.344Z,21.84
2022-08-17T01:39:45.623Z,21.84
2022-08-17T01:42:36.813Z,21.84
2022-08-17T01:45:11.917Z,21.84
2022-08-17T01:47:39.209Z,21.82
2022-08-17T01:50:12.184Z,21.73
2022-08-17T01:52:40.453Z,21.74
2022-08-17T01:55:10.106Z,21.67
2022-08-17T01:57:37.319Z,21.60
2022-08-17T02:00:10.490Z,21.51
2022-08-17T02:02:37.438Z,21.49
2022-08-17T02:05:05.376Z,21.45
2022-08-17T02:07:32.533Z,21.46
2022-08-17T02:10:20.281Z,21.45
2022-08-17T02:12:49.326Z,21.46
2022-08-17T02:15:16.542Z,21.44
2022-08-17T02:17:43.600Z,21.41
2022-08-17T02:20:11.520Z,21.41
2022-08-17T02:22:40.322Z,21.40
2022-08-17T02:25:09.902Z,21.40
2022-08-17T02:27:39.037Z,21.42
2022-08-17T02:31:00.254Z,21.43
2022-08-17T02:32:56.475Z,21.44
2022-08-17T02:35:23.919Z,21.43
2022-08-17T02:37:51.951Z,21.42
2022-08-17T02:40:35.755Z,21.44
2022-08-17T02:43:05.486Z,21.43
2022-08-17T02:45:32.730Z,21.43
2022-08-17T02:47:59.773Z,21.41
2022-08-17T02:50:27.235Z,21.42
2022-08-17T02:53:01.747Z,21.35
2022-08-17T02:55:36.361Z,21.29
2022-08-17T02:58:04.409Z,21.25
2022-08-17T03:00:35.452Z,21.21
2022-08-17T03:03:05.865Z,21.20
2022-08-17T03:05:35.578Z,21.19
2022-08-17T03:08:05.773Z,21.15
2022-08-17T03:10:33.341Z,21.11
2022-08-17T03:13:00.850Z,21.05
2022-08-17T03:15:31.750Z,21.01
2022-08-17T03:17:59.857Z,20.99
2022-08-17T03:20:28.669Z,20.94
2022-08-17T03:23:02.980Z,20.89
2022-08-17T03:25:37.540Z,20.88
2022-08-17T03:28:06.563Z,20.88
2022-08-17T03:30:34.520Z,20.89
2022-08-17T03:33:04.986Z,20.87
2022-08-17T03:35:34.811Z,20.87
2022-08-17T03:38:02.629Z,20.87
2022-08-17T03:40:34.449Z,20.89
2022-08-17T03:43:19.384Z,20.93
2022-08-17T03:46:05.026Z,20.93
2022-08-17T03:48:51.558Z,20.93
2022-08-17T03:51:48.367Z,20.91
2022-08-17T03:54:33.781Z,20.85
2022-08-17T03:57:05.583Z,20.84
2022-08-17T03:59:33.555Z,20.86
2022-08-17T04:02:13.557Z,20.86
2022-08-17T04:04:40.994Z,20.85
2022-08-17T04:07:08.242Z,20.84
2022-08-17T04:09:36.840Z,20.86
2022-08-17T04:12:05.435Z,20.88
2022-08-17T04:14:51.890Z,20.90
2022-08-17T04:17:23.439Z,20.91
2022-08-17T04:19:50.586Z,20.90
2022-08-17T04:22:32.737Z,20.89
2022-08-17T04:25:08.920Z,20.85
2022-08-17T04:27:36.551Z,20.80
2022-08-17T04:30:07.555Z,20.77
2022-08-17T04:33:06.217Z,20.77
2022-08-17T04:35:38.590Z,20.77
2022-08-17T04:38:07.463Z,20.76
2022-08-17T04:40:52.969Z,20.78
2022-08-17T04:43:22.147Z,20.78
2022-08-17T04:45:56.240Z,20.77
2022-08-17T04:48:37.362Z,20.76
2022-08-17T04:51:08.599Z,20.75
2022-08-17T04:53:35.851Z,20.77
2022-08-17T04:56:03.073Z,20.78
2022-08-17T04:58:30.268Z,20.77
2022-08-17T05:00:57.848Z,20.75
2022-08-17T05:03:25.055Z,20.73
2022-08-17T05:05:52.177Z,20.72
2022-08-17T05:08:20.986Z,20.72
2022-08-17T05:10:49.343Z,20.69
2022-08-17T05:13:24.306Z,20.67
2022-08-17T05:15:55.761Z,20.63
2022-08-17T05:18:24.431Z,20.61
2022-08-17T05:20:52.601Z,20.58
2022-08-17T05:23:21.195Z,20.57
2022-08-17T05:25:50.783Z,20.56
2022-08-17T05:28:24.122Z,20.56
2022-08-17T05:30:55.361Z,20.56
2022-08-17T05:33:25.574Z,20.58
2022-08-17T05:35:55.003Z,20.58
2022-08-17T05:38:24.554Z,20.58
2022-08-17T05:40:52.788Z,20.58
2022-08-17T05:43:25.746Z,20.57
2022-08-17T05:46:22.922Z,20.52
2022-08-17T05:48:53.034Z,20.48
2022-08-17T05:51:59.239Z,20.49
2022-08-17T05:54:28.962Z,20.51
2022-08-17T05:57:34.591Z,20.53
2022-08-17T06:00:26.230Z,20.56
2022-08-17T06:03:11.365Z,20.57
2022-08-17T06:05:59.673Z,20.58
2022-08-17T06:08:37.140Z,20.60
2022-08-17T06:11:39.110Z,20.62
2022-08-17T06:14:30.984Z,20.66
2022-08-17T06:17:06.391Z,20.66
2022-08-17T06:19:42.182Z,20.65
2022-08-17T06:22:13.648Z,20.67
2022-08-17T06:24:51.637Z,20.69
2022-08-17T06:27:46.197Z,20.68
2022-08-17T06:30:15.565Z,20.68
2022-08-17T06:32:45.380Z,20.67
2022-08-17T06:35:16.973Z,20.69
2022-08-17T06:38:05.084Z,20.66
2022-08-17T06:40:47.368Z,20.66
2022-08-17T06:43:51.516Z,20.67
2022-08-17T06:46:33.408Z,20.62
2022-08-17T06:49:22.169Z,20.64
2022-08-17T06:52:07.576Z,20.62
2022-08-17T06:55:00.445Z,20.62
2022-08-17T06:57:33.270Z,20.64
2022-08-17T07:00:17.619Z,20.66
2022-08-17T07:03:07.246Z,20.71
2022-08-17T07:05:37.362Z,20.72
2022-08-17T07:08:35.176Z,20.77
2022-08-17T07:11:32.436Z,20.81
2022-08-17T07:14:17.276Z,20.81
2022-08-17T07:16:49.084Z,20.81
2022-08-17T07:19:18.783Z,20.78
2022-08-17T07:22:06.036Z,20.79
2022-08-17T07:24:47.485Z,20.79
2022-08-17T07:27:31.386Z,20.83
2022-08-17T07:30:06.780Z,20.87
2022-08-17T07:32:45.516Z,20.90
2022-08-17T07:35:41.240Z,20.88
2022-08-17T07:38:24.958Z,20.88
2022-08-17T07:41:03.085Z,20.89
2022-08-17T07:43:35.793Z,20.91
2022-08-17T07:46:30.590Z,20.91
2022-08-17T07:49:23.484Z,20.92
2022-08-17T07:51:51.420Z,20.95
2022-08-17T07:54:35.870Z,20.98
2022-08-17T07:57:08.792Z,20.98
2022-08-17T07:59:38.826Z,21.02
2022-08-17T08:02:17.795Z,21.04
2022-08-17T08:05:01.205Z,20.98
2022-08-17T08:07:50.640Z,21.00
2022-08-17T08:10:27.947Z,20.98
2022-08-17T08:13:12.307Z,21.01
2022-08-17T08:15:53.666Z,21.05
2022-08-17T08:18:53.636Z,21.12
2022-08-17T08:21:59.205Z,21.10
2022-08-17T08:24:44.970Z,21.05
2022-08-17T08:27:34.992Z,21.02
2022-08-17T08:30:06.686Z,21.03
2022-08-17T08:32:57.705Z,21.07
2022-08-17T08:35:44.575Z,21.15
2022-08-17T08:38:28.273Z,21.19
2022-08-17T08:41:30.667Z,21.27
2022-08-17T08:45:01.096Z,21.37
2022-08-17T08:47:37.645Z,21.44
2022-08-17T08:50:37.110Z,21.49
2022-08-17T08:53:14.511Z,21.59
2022-08-17T08:55:51.165Z,21.69
2022-08-17T08:58:31.467Z,21.81
2022-08-17T09:01:18.466Z,21.89
2022-08-17T09:04:23.251Z,21.91
2022-08-17T09:07:08.431Z,21.93
2022-08-17T09:10:05.218Z,22.01
2022-08-17T09:12:56.560Z,22.08
2022-08-17T09:15:28.702Z,22.12
2022-08-17T09:18:59.369Z,22.14
2022-08-17T09:23:39.157Z,22.15
2022-08-17T09:26:25.600Z,22.22
2022-08-17T09:28:55.969Z,22.24
2022-08-17T09:31:33.149Z,22.29
2022-08-17T09:34:09.268Z,22.31
2022-08-17T09:36:44.868Z,22.33
2022-08-17T09:39:20.494Z,22.35
2022-08-17T09:42:05.048Z,22.35
2022-08-17T09:44:49.744Z,22.35
2022-08-17T09:47:32.748Z,22.38
2022-08-17T09:51:05.013Z,22.38
2022-08-17T09:53:17.942Z,22.45
2022-08-17T09:56:20.012Z,22.51
2022-08-17T09:59:22.634Z,22.56
2022-08-17T10:02:16.806Z,22.67
2022-08-17T10:04:58.806Z,22.86
2022-08-17T10:07:36.896Z,22.93
2022-08-17T10:10:56.748Z,22.98
2022-08-17T10:13:41.811Z,22.97
2022-08-17T10:16:23.388Z,22.96
2022-08-17T10:19:07.381Z,22.98
2022-08-17T10:22:01.083Z,23.03
2022-08-17T10:25:23.416Z,23.18
2022-08-17T10:28:02.032Z,23.19
2022-08-17T10:30:33.023Z,23.20
2022-08-17T10:33:15.806Z,23.24
2022-08-17T10:36:01.643Z,23.25
2022-08-17T10:38:40.173Z,23.22
2022-08-17T10:41:33.895Z,23.20
2022-08-17T10:44:41.078Z,23.19
2022-08-17T10:47:15.260Z,23.19
2022-08-17T10:49:54.354Z,23.17
2022-08-17T10:52:22.122Z,23.15
2022-08-17T10:54:51.873Z,23.15
2022-08-17T10:57:31.937Z,23.15
2022-08-17T11:00:00.674Z,23.15
2022-08-17T11:02:31.658Z,23.21
2022-08-17T11:05:14.539Z,23.35
2022-08-17T11:08:05.410Z,23.49
2022-08-17T11:10:57.214Z,23.61
2022-08-17T11:13:45.168Z,23.69
2022-08-17T11:16:53.467Z,23.73
2022-08-17T11:19:57.869Z,23.76
2022-08-17T11:22:44.602Z,23.80
2022-08-17T11:25:31.972Z,23.78
2022-08-17T11:28:34.742Z,23.79
2022-08-17T11:31:38.373Z,23.82
2022-08-17T11:34:19.009Z,23.84
2022-08-17T11:37:01.922Z,23.84
2022-08-17T11:40:08.493Z,23.97
2022-08-17T11:42:50.480Z,24.06
2022-08-17T11:45:32.491Z,24.12
2022-08-17T11:48:55.377Z,24.20
2022-08-17T11:51:55.118Z,24.24
2022-08-17T11:54:33.751Z,24.27
2022-08-17T11:57:21.686Z,24.32
2022-08-17T11:59:48.550Z,24.38
2022-08-17T12:02:35.228Z,24.48
2022-08-17T12:05:13.273Z,24.52
2022-08-17T12:08:07.246Z,24.61
2022-08-17T12:10:36.865Z,24.67
2022-08-17T12:13:13.417Z,24.71
2022-08-17T12:15:48.880Z,24.80
2022-08-17T12:18:20.646Z,24.92
2022-08-17T12:21:01.662Z,24.99
2022-08-17T12:23:57.710Z,24.95
2022-08-17T12:26:33.543Z,24.97
2022-08-17T12:29:04.168Z,24.95
2022-08-17T12:31:53.039Z,24.92
2022-08-17T12:34:36.180Z,24.88
2022-08-17T12:37:08.288Z,24.85
2022-08-17T12:39:35.360Z,24.80
2022-08-17T12:42:03.468Z,24.78
2022-08-17T12:44:36.468Z,24.78
2022-08-17T12:47:22.251Z,24.75
2022-08-17T12:49:54.758Z,24.73
2022-08-17T12:52:33.466Z,24.69
2022-08-17T12:55:02.118Z,24.70
2022-08-17T12:57:41.261Z,24.74
2022-08-17T13:00:13.917Z,24.70
2022-08-17T13:02:51.380Z,24.75
2022-08-17T13:05:27.758Z,24.69
2022-08-17T13:07:57.776Z,24.67
2022-08-17T13:10:32.131Z,24.63
2022-08-17T13:13:05.540Z,24.57
2022-08-17T13:15:44.849Z,24.54
2022-08-17T13:18:39.234Z,24.48
2022-08-17T13:21:19.010Z,24.38
2022-08-17T13:24:04.416Z,24.28
2022-08-17T13:26:44.654Z,24.16
2022-08-17T13:29:27.729Z,24.12
2022-08-17T13:32:19.824Z,24.06
2022-08-17T13:35:12.012Z,23.99
2022-08-17T13:37:40.583Z,23.84
2022-08-17T13:40:08.247Z,23.66
2022-08-17T13:42:52.724Z,23.57
2022-08-17T13:45:36.179Z,23.41
2022-08-17T13:48:13.770Z,23.28
2022-08-17T13:51:11.215Z,23.14
2022-08-17T13:53:37.979Z,22.97
2022-08-17T13:56:37.037Z,22.84
2022-08-17T13:59:04.574Z,22.66
2022-08-17T14:01:34.424Z,22.52
2022-08-17T14:04:13.703Z,22.38
2022-08-17T14:07:24.946Z,22.23
2022-08-17T14:10:09.440Z,22.06
2022-08-17T14:12:39.951Z,21.99
2022-08-17T14:15:08.787Z,21.88
2022-08-17T14:17:38.831Z,21.77
2022-08-17T14:20:09.751Z,21.66
2022-08-17T14:22:40.845Z,21.59
2022-08-17T14:25:08.665Z,21.53
2022-08-17T14:27:47.465Z,21.50
2022-08-17T14:30:22.567Z,21.48
2022-08-17T14:32:52.002Z,21.45
2022-08-17T14:35:24.311Z,21.42
2022-08-17T14:37:52.515Z,21.41
2022-08-17T14:40:21.030Z,21.41
2022-08-17T14:42:48.308Z,21.36
2022-08-17T14:45:29.939Z,21.32
2022-08-17T14:47:59.425Z,21.28
2022-08-17T14:50:27.373Z,21.27
2022-08-17T14:52:57.880Z,21.29
2022-08-17T14:55:26.220Z,21.30
2022-08-17T14:57:53.401Z,21.31
2022-08-17T15:00:20.399Z,21.31
2022-08-17T15:02:53.902Z,21.33
2022-08-17T15:05:23.852Z,21.34
2022-08-17T15:07:51.012Z,21.32
2022-08-17T15:10:18.153Z,21.32
2022-08-17T15:12:45.661Z,21.32
2022-08-17T15:15:16.087Z,21.33
2022-08-17T15:17:46.039Z,21.35
2022-08-17T15:20:33.485Z,21.37
2022-08-17T15:23:00.677Z,21.32
2022-08-17T15:25:32.122Z,21.30
2022-08-17T15:28:00.284Z,21.27
2022-08-17T15:30:27.765Z,21.24
2022-08-17T15:32:56.893Z,21.21
2022-08-17T15:35:27.995Z,21.19
2022-08-17T15:38:06.282Z,21.16
2022-08-17T15:40:43.749Z,21.13
2022-08-17T15:43:17.359Z,21.11
2022-08-17T15:45:45.002Z,21.07
2022-08-17T15:48:40.969Z,21.03
2022-08-17T15:51:15.260Z,21.00
2022-08-17T15:53:44.838Z,20.97
2022-08-17T15:56:13.893Z,20.93
2022-08-17T15:58:42.510Z,20.93
2022-08-17T16:01:16.584Z,20.91
2022-08-17T16:04:04.096Z,20.82
2022-08-17T16:06:33.830Z,20.78
2022-08-17T16:09:00.835Z,20.75
2022-08-17T16:11:27.760Z,20.74
2022-08-17T16:13:56.023Z,20.75
2022-08-17T16:16:23.862Z,20.75
2022-08-17T16:18:54.528Z,20.73
2022-08-17T16:21:31.146Z,20.71
2022-08-17T16:24:13.447Z,20.68
2022-08-17T16:26:40.729Z,20.68
2022-08-17T16:29:08.450Z,20.66
2022-08-17T16:31:36.352Z,20.67
2022-08-17T16:34:17.458Z,20.69
2022-08-17T16:36:54.852Z,20.71
2022-08-17T16:39:29.256Z,20.72
2022-08-17T16:41:57.243Z,20.69
2022-08-17T16:44:24.320Z,20.68
2022-08-17T16:46:51.279Z,20.70
2022-08-17T16:49:35.706Z,20.69
2022-08-17T16:52:04.530Z,20.70
2022-08-17T16:54:31.474Z,20.67
2022-08-17T16:56:58.313Z,20.68
2022-08-17T16:59:31.240Z,20.65
2022-08-17T17:02:11.185Z,20.68
2022-08-17T17:04:45.788Z,20.69
2022-08-17T17:07:41.647Z,20.69
2022-08-17T17:10:13.497Z,20.72
2022-08-17T17:13:02.041Z,20.69
2022-08-17T17:15:39.845Z,20.71
2022-08-17T17:18:11.765Z,20.71
2022-08-17T17:21:12.521Z,20.71
2022-08-17T17:23:42.110Z,20.72
2022-08-17T17:26:35.531Z,20.73
2022-08-17T17:29:28.769Z,20.74
2022-08-17T17:32:21.155Z,20.76
2022-08-17T17:34:55.271Z,20.77
2022-08-17T17:37:32.650Z,20.78
2022-08-17T17:40:05.280Z,20.83
2022-08-17T17:42:33.609Z,20.86
2022-08-17T17:45:13.837Z,20.88
2022-08-17T17:47:40.914Z,20.92
2022-08-17T17:50:08.656Z,20.95
2022-08-17T17:52:47.291Z,20.96
2022-08-17T17:55:42.895Z,20.96
2022-08-17T17:58:38.958Z,20.97
2022-08-17T18:01:14.786Z,20.98
2022-08-17T18:04:04.662Z,20.96
2022-08-17T18:07:00.463Z,20.96
2022-08-17T18:09:27.285Z,21.00
2022-08-17T18:11:59.146Z,21.00
2022-08-17T18:14:35.683Z,21.00
2022-08-17T18:17:02.634Z,21.02
2022-08-17T18:19:31.119Z,21.02
2022-08-17T18:22:14.488Z,21.03
2022-08-17T18:24:44.932Z,21.05
2022-08-17T18:27:33.547Z,21.07
2022-08-17T18:30:21.768Z,21.03
2022-08-17T18:32:48.756Z,21.01
2022-08-17T18:35:18.371Z,21.00
2022-08-17T18:38:07.970Z,20.98
2022-08-17T18:40:37.827Z,20.96
2022-08-17T18:43:12.595Z,20.94
2022-08-17T18:45:47.558Z,20.97
2022-08-17T18:48:27.242Z,20.95
2022-08-17T18:50:58.500Z,20.91
2022-08-17T18:53:35.237Z,20.91
2022-08-17T18:56:34.362Z,20.91
2022-08-17T18:59:10.686Z,20.92
2022-08-17T19:02:05.088Z,20.92
2022-08-17T19:05:12.082Z,20.95
2022-08-17T19:07:46.436Z,20.95
2022-08-17T19:10:46.092Z,20.95
2022-08-17T19:13:24.340Z,20.95
2022-08-17T19:16:20.770Z,20.95
2022-08-17T19:19:16.592Z,20.92
2022-08-17T19:21:57.315Z,20.90
2022-08-17T19:24:27.530Z,20.89
2022-08-17T19:27:06.984Z,20.88
2022-08-17T19:29:57.066Z,20.85
2022-08-17T19:32:32.629Z,20.83
2022-08-17T19:35:01.364Z,20.83
2022-08-17T19:37:31.398Z,20.78
2022-08-17T19:40:35.027Z,20.78
2022-08-17T19:43:48.363Z,20.76
2022-08-17T19:46:35.714Z,20.75
2022-08-17T19:49:33.475Z,20.76
2022-08-17T19:52:40.070Z,20.74
2022-08-17T19:55:20.716Z,20.72
2022-08-17T19:58:10.904Z,20.73
2022-08-17T20:00:47.330Z,20.72
2022-08-17T20:03:23.894Z,20.71
2022-08-17T20:06:12.176Z,20.72
2022-08-17T20:08:49.552Z,20.71
2022-08-17T20:11:31.814Z,20.71
2022-08-17T20:14:15.124Z,20.73
2022-08-17T20:16:42.355Z,20.76
2022-08-17T20:19:33.945Z,20.78
2022-08-17T20:22:18.082Z,20.76
2022-08-17T20:24:45.335Z,20.72
2022-08-17T20:27:12.430Z,20.70
2022-08-17T20:30:04.587Z,20.72
2022-08-17T20:32:35.768Z,20.73
2022-08-17T20:35:21.107Z,20.68
2022-08-17T20:37:59.015Z,20.68
2022-08-17T20:40:35.543Z,20.65
2022-08-17T20:43:31.597Z,20.65
2022-08-17T20:46:32.611Z,20.68
2022-08-17T20:49:19.895Z,20.65
2022-08-17T20:52:03.088Z,20.63
2022-08-17T20:54:54.397Z,20.64
2022-08-17T20:57:33.834Z,20.65
2022-08-17T21:00:17.401Z,20.65
2022-08-17T21:03:07.781Z,20.66
2022-08-17T21:06:17.121Z,20.64
2022-08-17T21:09:07.268Z,20.64
2022-08-17T21:11:59.980Z,20.67
2022-08-17T21:14:38.287Z,20.65
2022-08-17T21:17:31.761Z,20.64
2022-08-17T21:20:12.153Z,20.65
2022-08-17T21:23:07.295Z,20.64
2022-08-17T21:26:10.857Z,20.64
2022-08-17T21:29:00.241Z,20.63
2022-08-17T21:31:35.797Z,20.60
2022-08-17T21:34:20.799Z,20.60
2022-08-17T21:36:48.816Z,20.62
2022-08-17T21:39:23.285Z,20.62
2022-08-17T21:42:01.147Z,20.62
2022-08-17T21:44:38.010Z,20.63
2022-08-17T21:47:24.061Z,20.64
2022-08-17T21:49:55.191Z,20.63
2022-08-17T21:52:26.931Z,20.64
2022-08-17T21:54:57.391Z,20.65
2022-08-17T21:57:28.167Z,20.65
2022-08-17T22:00:01.470Z,20.62
2022-08-17T22:02:36.380Z,20.61
2022-08-17T22:05:09.008Z,20.62
2022-08-17T22:07:40.593Z,20.63
2022-08-17T22:10:30.028Z,20.60
2022-08-17T22:13:04.855Z,20.63
2022-08-17T22:15:31.944Z,20.59
2022-08-17T22:18:04.398Z,20.58
2022-08-17T22:20:31.466Z,20.56
2022-08-17T22:23:19.562Z,20.52
2022-08-17T22:26:00.259Z,20.51
2022-08-17T22:28:45.812Z,20.51
2022-08-17T22:31:16.421Z,20.49
2022-08-17T22:33:45.973Z,20.42
2022-08-17T22:36:33.232Z,20.38
2022-08-17T22:39:07.620Z,20.36
2022-08-17T22:42:00.488Z,20.33
2022-08-17T22:44:35.783Z,20.33
2022-08-17T22:47:24.405Z,20.28
2022-08-17T22:49:57.965Z,20.28
2022-08-17T22:52:35.254Z,20.28
2022-08-17T22:55:32.728Z,20.23
2022-08-17T22:58:19.381Z,20.24
2022-08-17T23:00:49.172Z,20.21
2022-08-17T23:03:21.036Z,20.24
2022-08-17T23:06:09.088Z,20.25
2022-08-17T23:08:50.392Z,20.25
2022-08-17T23:11:17.257Z,20.25
2022-08-17T23:13:44.601Z,20.26
2022-08-17T23:16:11.461Z,20.21
2022-08-17T23:18:38.755Z,20.18
2022-08-17T23:21:07.595Z,20.18
2022-08-17T23:23:35.433Z,20.16
2022-08-17T23:26:10.598Z,20.15
2022-08-17T23:28:38.222Z,20.16
2022-08-17T23:31:05.726Z,20.18
2022-08-17T23:33:38.814Z,20.19
2022-08-17T23:36:09.021Z,20.20
2022-08-17T23:38:36.679Z,20.15
2022-08-17T23:41:11.922Z,20.15
2022-08-17T23:43:40.089Z,20.14
2022-08-17T23:46:07.424Z,20.14
2022-08-17T23:48:36.557Z,20.11
2022-08-17T23:51:18.281Z,20.13
2022-08-17T23:53:49.385Z,20.14
2022-08-17T23:56:19.786Z,20.10
2022-08-17T23:58:46.657Z,20.07
